Time;durP1;ratioP1;P1;durP2;ratioP2;P2;SDS_P1;SDS_P2;PMS_P1;PMS_P2;Temp;Humidity;BMP_temperature;BMP_pressure;BME280_temperature;BME280_humidity;BME280_pressure;Samples;Min_cycle;Max_cycle;Signal;HPM_P1;HPM_P2
2023/01/09 00:00:30;;;;;;;23.60;19.17;;;5.30;99.90;;;;;;5073365;28;20644;-74
2023/01/09 00:02:58;;;;;;;20.67;18.27;;;5.30;99.90;;;;;;5073372;28;20249;-74
2023/01/09 00:05:25;;;;;;;22.37;18.43;;;5.30;99.90;;;;;;5073309;28;20197;-73
2023/01/09 00:07:51;;;;;;;26.90;19.70;;;5.30;99.90;;;;;;5073114;28;20659;-73
2023/01/09 00:10:18;;;;;;;25.90;20.40;;;5.30;99.90;;;;;;5073410;28;20193;-73
2023/01/09 00:12:45;;;;;;;25.20;20.87;;;5.30;99.90;;;;;;5073294;28;20197;-73
2023/01/09 00:15:12;;;;;;;24.63;20.27;;;5.30;99.90;;;;;;5073116;28;20213;-74
2023/01/09 00:17:38;;;;;;;27.93;21.20;;;5.30;99.90;;;;;;5073093;28;20201;-73
2023/01/09 00:20:09;;;;;;;26.03;22.00;;;5.30;99.90;;;;;;5073091;28;20255;-73
2023/01/09 00:22:36;;;;;;;24.43;20.67;;;5.30;99.90;;;;;;5073253;28;20821;-73
2023/01/09 00:25:03;;;;;;;25.17;20.80;;;5.30;99.90;;;;;;5073048;28;20287;-74
2023/01/09 00:27:31;;;;;;;24.63;19.67;;;5.30;99.90;;;;;;5073093;28;20543;-74
2023/01/09 00:29:57;;;;;;;24.60;19.97;;;5.30;99.90;;;;;;5073108;28;20200;-74
2023/01/09 00:32:24;;;;;;;26.13;20.90;;;5.30;99.90;;;;;;5072868;28;20714;-73
2023/01/09 00:34:51;;;;;;;24.37;19.30;;;5.30;99.90;;;;;;5072801;28;20262;-73
2023/01/09 00:37:18;;;;;;;24.70;20.10;;;5.30;99.90;;;;;;5073082;28;20200;-74
2023/01/09 00:39:45;;;;;;;26.97;21.43;;;5.30;99.90;;;;;;5072986;28;20197;-74
2023/01/09 00:42:15;;;;;;;24.87;19.93;;;5.30;99.90;;;;;;5072725;28;20725;-74
2023/01/09 00:44:46;;;;;;;23.03;18.50;;;5.30;99.90;;;;;;5072910;28;20231;-74
2023/01/09 00:47:15;;;;;;;29.60;22.43;;;5.30;99.90;;;;;;5072710;28;20258;-74
2023/01/09 00:49:44;;;;;;;27.77;22.40;;;5.30;99.90;;;;;;5072909;28;20254;-74
2023/01/09 00:52:13;;;;;;;37.53;22.20;;;5.30;99.90;;;;;;5072778;28;20223;-74
2023/01/09 00:54:43;;;;;;;21.33;17.70;;;5.30;99.90;;;;;;5072665;28;20259;-74
2023/01/09 00:57:12;;;;;;;22.13;17.57;;;5.40;99.90;;;;;;5072684;28;20208;-74
2023/01/09 00:59:39;;;;;;;22.83;18.03;;;5.40;99.90;;;;;;5072847;28;20239;-74
2023/01/09 01:02:06;;;;;;;20.70;17.70;;;5.30;99.90;;;;;;5072531;28;20193;-74
2023/01/09 01:10:04;;;;;;;20.57;17.43;;;5.40;99.90;;;;;;5076830;28;20250;-74
2023/01/09 01:12:30;;;;;;;20.13;16.40;;;5.50;99.90;;;;;;5076879;28;20197;-74
2023/01/09 01:14:57;;;;;;;18.87;16.00;;;5.50;99.90;;;;;;5076439;28;20575;-74
2023/01/09 01:17:24;;;;;;;19.83;15.73;;;5.60;99.90;;;;;;5076599;28;20261;-73
2023/01/09 01:19:50;;;;;;;18.30;15.43;;;5.60;99.90;;;;;;5076575;28;20205;-73
2023/01/09 01:22:17;;;;;;;19.07;15.63;;;5.70;99.90;;;;;;5076521;28;20197;-74
2023/01/09 01:24:43;;;;;;;18.93;16.17;;;5.60;99.90;;;;;;5076167;28;20228;-74
2023/01/09 01:27:11;;;;;;;18.70;15.90;;;5.60;99.90;;;;;;5076545;28;20325;-74
2023/01/09 01:29:38;;;;;;;21.10;16.53;;;5.60;99.90;;;;;;5076448;28;20201;-74
2023/01/09 01:32:05;;;;;;;18.53;16.37;;;5.60;99.90;;;;;;5076124;28;20672;-73
2023/01/09 01:34:31;;;;;;;18.80;15.97;;;5.60;99.90;;;;;;5076182;28;20252;-73
2023/01/09 01:36:58;;;;;;;19.50;15.77;;;5.50;99.90;;;;;;5076066;28;20706;-73
2023/01/09 01:39:24;;;;;;;17.63;14.93;;;5.60;99.90;;;;;;5075944;28;20193;-74
2023/01/09 01:41:51;;;;;;;16.67;14.13;;;5.60;99.90;;;;;;5076288;28;20200;-74
2023/01/09 01:44:55;;;;;;;14.30;12.80;;;5.60;99.90;;;;;;5076174;28;20204;-74
2023/01/09 01:47:28;;;;;;;14.27;11.20;;;5.70;99.90;;;;;;5075977;28;20603;-74
2023/01/09 01:49:55;;;;;;;12.30;10.43;;;5.80;99.90;;;;;;5075844;28;20227;-74
2023/01/09 01:52:23;;;;;;;12.97;10.40;;;5.80;99.90;;;;;;5076079;28;20201;-73
2023/01/09 01:54:50;;;;;;;12.17;10.67;;;5.90;99.90;;;;;;5075788;28;20212;-73
2023/01/09 01:57:16;;;;;;;10.10;9.10;;;5.90;99.90;;;;;;5075931;28;20200;-71
2023/01/09 01:59:49;;;;;;;10.27;9.17;;;5.90;99.90;;;;;;5075640;28;20668;-73
2023/01/09 02:02:17;;;;;;;11.53;9.63;;;5.90;99.90;;;;;;5075581;28;20197;-72
2023/01/09 02:04:47;;;;;;;10.33;8.73;;;5.90;99.90;;;;;;5075824;28;20197;-72
2023/01/09 02:07:13;;;;;;;10.20;9.07;;;6.00;99.90;;;;;;5075728;28;20263;-72
2023/01/09 02:09:43;;;;;;;9.67;8.40;;;5.90;99.90;;;;;;5075586;28;20193;-72
2023/01/09 02:12:18;;;;;;;9.10;8.00;;;6.00;99.90;;;;;;5075564;28;20197;-73
2023/01/09 02:14:46;;;;;;;11.43;8.50;;;5.90;99.90;;;;;;5075295;28;20197;-72
2023/01/09 02:17:24;;;;;;;11.13;7.83;;;5.90;99.90;;;;;;5075424;28;20201;-72
2023/01/09 02:20:38;;;;;;;7.90;7.10;;;6.00;99.90;;;;;;5075205;28;20197;-72
2023/01/09 02:23:59;;;;;;;8.07;6.93;;;5.90;99.90;;;;;;5075196;28;20208;-72
2023/01/09 02:26:57;;;;;;;7.80;7.00;;;5.90;99.90;;;;;;5074981;28;20229;-72
2023/01/09 02:29:55;;;;;;;8.73;7.60;;;5.90;99.90;;;;;;5075113;28;20200;-72
2023/01/09 02:32:33;;;;;;;8.00;7.13;;;5.90;99.90;;;;;;5075232;28;20193;-72
2023/01/09 02:35:10;;;;;;;8.17;7.20;;;5.90;99.90;;;;;;5075339;28;20197;-72
2023/01/09 02:37:44;;;;;;;8.17;7.37;;;5.90;99.90;;;;;;5074964;28;20193;-72
2023/01/09 02:40:20;;;;;;;8.13;7.13;;;5.90;99.90;;;;;;5075195;28;20342;-72
2023/01/09 02:42:48;;;;;;;9.40;8.17;;;5.80;99.90;;;;;;5074866;28;20196;-72
2023/01/09 02:45:14;;;;;;;9.63;8.10;;;5.80;99.90;;;;;;5075004;28;20542;-72
2023/01/09 02:47:44;;;;;;;10.50;8.87;;;5.90;99.90;;;;;;5074863;28;20193;-73
2023/01/09 02:50:16;;;;;;;11.37;9.00;;;5.80;99.90;;;;;;5074727;28;20250;-72
2023/01/09 02:53:07;;;;;;;10.43;8.73;;;5.80;99.90;;;;;;5074848;28;20200;-72
2023/01/09 02:55:56;;;;;;;11.40;9.67;;;5.80;99.90;;;;;;5074762;28;20274;-72
2023/01/09 02:58:43;;;;;;;10.13;8.97;;;5.80;99.90;;;;;;5074710;28;20201;-73
2023/01/09 03:01:24;;;;;;;11.00;9.60;;;5.90;99.90;;;;;;5074939;28;20219;-72
2023/01/09 03:04:02;;;;;;;10.87;9.40;;;5.90;99.90;;;;;;5074743;28;20192;-72
2023/01/09 03:06:32;;;;;;;10.33;9.23;;;6.00;99.90;;;;;;5074621;28;20201;-72
2023/01/09 03:09:04;;;;;;;9.80;8.77;;;6.00;99.90;;;;;;5074295;28;20676;-72
2023/01/09 03:11:37;;;;;;;10.03;9.03;;;6.10;99.90;;;;;;5074606;28;20197;-73
2023/01/09 03:14:09;;;;;;;10.50;9.10;;;6.20;99.90;;;;;;5074462;28;20251;-73
2023/01/09 03:16:37;;;;;;;11.30;9.17;;;6.10;99.90;;;;;;5074221;28;20645;-72
2023/01/09 03:19:09;;;;;;;10.77;8.93;;;6.10;99.90;;;;;;5074284;28;20201;-72
2023/01/09 03:21:36;;;;;;;9.80;8.60;;;6.10;99.90;;;;;;5074199;28;20606;-73
2023/01/09 03:24:03;;;;;;;10.13;8.93;;;6.10;99.90;;;;;;5074316;28;20193;-73
2023/01/09 03:26:30;;;;;;;10.13;9.03;;;6.10;99.90;;;;;;5073903;28;20229;-73
2023/01/09 03:28:57;;;;;;;10.93;9.63;;;6.20;99.90;;;;;;5073933;28;20197;-73
2023/01/09 03:31:24;;;;;;;9.73;8.70;;;6.20;99.90;;;;;;5073246;28;20197;-73
2023/01/09 03:33:51;;;;;;;10.17;8.93;;;6.10;99.90;;;;;;5073867;28;20197;-73
2023/01/09 03:36:20;;;;;;;10.27;8.33;;;6.20;99.90;;;;;;5073991;28;20298;-73
2023/01/09 03:38:47;;;;;;;8.83;7.83;;;6.10;99.90;;;;;;5073943;28;20197;-73
2023/01/09 03:41:13;;;;;;;9.13;7.90;;;6.10;99.90;;;;;;5073823;28;20235;-74
2023/01/09 03:43:40;;;;;;;9.60;7.97;;;6.20;99.90;;;;;;5073830;28;20709;-73
2023/01/09 03:46:07;;;;;;;8.50;7.60;;;6.20;99.90;;;;;;5073775;28;20246;-73
2023/01/09 03:48:33;;;;;;;9.00;7.47;;;6.30;99.90;;;;;;5073483;28;20197;-72
2023/01/09 03:51:00;;;;;;;7.57;6.77;;;6.40;99.90;;;;;;5073728;28;20255;-73
2023/01/09 03:53:28;;;;;;;8.90;7.00;;;6.40;99.90;;;;;;5073502;28;20193;-73
2023/01/09 03:55:57;;;;;;;6.97;6.27;;;6.40;99.90;;;;;;5073503;28;20232;-73
2023/01/09 03:58:25;;;;;;;6.77;6.07;;;6.40;99.90;;;;;;5073352;28;20197;-73
2023/01/09 04:00:56;;;;;;;6.97;6.00;;;6.40;99.90;;;;;;5073700;28;20197;-73
2023/01/09 04:03:23;;;;;;;8.33;6.00;;;6.40;99.90;;;;;;5073313;28;20200;-73
2023/01/09 04:05:50;;;;;;;6.57;5.90;;;6.40;99.90;;;;;;5073474;28;20201;-73
2023/01/09 04:08:17;;;;;;;6.73;5.80;;;6.40;99.90;;;;;;5073710;28;20196;-73
2023/01/09 04:10:46;;;;;;;5.80;5.20;;;6.30;99.90;;;;;;5073316;28;20197;-73
2023/01/09 04:13:13;;;;;;;6.63;5.60;;;6.30;99.90;;;;;;5073250;28;20197;-72
2023/01/09 04:15:40;;;;;;;6.10;5.40;;;6.40;99.90;;;;;;5073260;28;20221;-72
2023/01/09 04:18:06;;;;;;;6.57;5.60;;;6.30;99.90;;;;;;5073344;28;20201;-73
2023/01/09 04:20:33;;;;;;;5.70;4.87;;;6.30;99.90;;;;;;5073383;28;20197;-73
2023/01/09 04:23:00;;;;;;;6.90;5.43;;;6.40;99.90;;;;;;5072909;28;20679;-72
2023/01/09 04:25:27;;;;;;;5.53;4.60;;;6.40;99.90;;;;;;5072841;28;20282;-73
2023/01/09 04:27:55;;;;;;;5.93;4.80;;;6.30;99.90;;;;;;5073006;28;20201;-72
2023/01/09 04:30:21;;;;;;;4.80;4.03;;;6.30;99.90;;;;;;5073101;28;20201;-73
2023/01/09 04:32:48;;;;;;;4.53;3.87;;;6.40;99.90;;;;;;5073086;28;20254;-73
2023/01/09 04:35:15;;;;;;;4.27;3.40;;;6.40;99.90;;;;;;5072883;28;20652;-73
2023/01/09 04:37:41;;;;;;;5.57;3.40;;;6.40;99.90;;;;;;5073161;28;20221;-73
2023/01/09 04:40:12;;;;;;;3.83;2.77;;;6.50;99.90;;;;;;5072839;28;20205;-73
2023/01/09 04:42:39;;;;;;;3.03;2.73;;;6.50;99.90;;;;;;5072352;28;20275;-73
2023/01/09 04:45:09;;;;;;;3.70;2.73;;;6.50;99.90;;;;;;5072942;28;20197;-72
2023/01/09 04:47:36;;;;;;;2.93;2.60;;;6.50;99.90;;;;;;5072746;28;20650;-72
2023/01/09 04:50:03;;;;;;;2.37;2.17;;;6.50;99.90;;;;;;5072823;28;20242;-72
2023/01/09 04:52:30;;;;;;;2.83;2.40;;;6.60;99.90;;;;;;5072600;28;20201;-73
2023/01/09 04:54:56;;;;;;;3.07;2.10;;;6.60;99.90;;;;;;5072694;28;20197;-72
2023/01/09 04:57:23;;;;;;;3.23;2.23;;;6.60;99.90;;;;;;5072473;28;20221;-72
2023/01/09 04:59:50;;;;;;;2.33;1.83;;;6.70;99.90;;;;;;5072747;28;20192;-73
2023/01/09 05:02:17;;;;;;;2.20;1.80;;;6.70;99.90;;;;;;5072604;28;20605;-73
2023/01/09 05:04:44;;;;;;;1.70;1.60;;;6.70;99.90;;;;;;5072681;28;20258;-73
2023/01/09 05:07:11;;;;;;;1.60;1.50;;;6.70;99.90;;;;;;5072698;28;20205;-73
2023/01/09 05:09:37;;;;;;;2.10;1.90;;;6.70;99.90;;;;;;5072644;28;20630;-73
2023/01/09 05:12:04;;;;;;;2.50;1.97;;;6.70;99.90;;;;;;5072444;28;20254;-73
2023/01/09 05:14:31;;;;;;;1.40;1.30;;;6.70;99.90;;;;;;5072667;28;20197;-73
2023/01/09 05:16:57;;;;;;;1.40;1.30;;;6.70;99.90;;;;;;5072532;28;20220;-73
2023/01/09 05:19:25;;;;;;;1.60;1.40;;;6.70;99.90;;;;;;5072556;28;20252;-73
2023/01/09 05:21:52;;;;;;;1.40;1.30;;;6.70;99.90;;;;;;5072420;28;20262;-73
2023/01/09 05:24:19;;;;;;;2.67;1.60;;;6.70;99.90;;;;;;5072251;28;20201;-73
2023/01/09 05:26:45;;;;;;;1.53;1.30;;;6.70;99.90;;;;;;5072993;28;20209;-73
2023/01/09 05:29:12;;;;;;;1.53;1.03;;;6.70;99.90;;;;;;5072544;28;20197;-73
2023/01/09 05:31:38;;;;;;;1.67;1.00;;;6.50;99.90;;;;;;5072487;28;20197;-73
2023/01/09 05:34:05;;;;;;;0.80;0.80;;;6.60;99.90;;;;;;5072395;28;20603;-73
2023/01/09 05:36:33;;;;;;;1.40;0.87;;;6.50;99.90;;;;;;5072233;28;20224;-73
2023/01/09 05:39:01;;;;;;;0.60;0.60;;;6.40;99.90;;;;;;5072242;28;20246;-73
2023/01/09 05:41:28;;;;;;;0.80;0.80;;;6.30;99.90;;;;;;5072340;28;20205;-73
2023/01/09 05:43:54;;;;;;;0.97;0.83;;;6.30;99.90;;;;;;5072172;28;20594;-73
2023/01/09 05:46:21;;;;;;;0.70;0.70;;;6.20;99.90;;;;;;5072189;28;20258;-74
2023/01/09 05:48:48;;;;;;;0.77;0.77;;;6.20;99.90;;;;;;5072168;28;20205;-73
2023/01/09 05:51:14;;;;;;;1.90;1.00;;;6.10;99.90;;;;;;5072055;28;20248;-73
2023/01/09 05:53:42;;;;;;;0.73;0.67;;;6.10;99.90;;;;;;5074042;28;20254;-74
2023/01/09 05:56:09;;;;;;;1.27;0.90;;;6.00;99.90;;;;;;5075931;28;20213;-73
2023/01/09 05:58:35;;;;;;;0.90;0.80;;;6.00;99.90;;;;;;5075676;28;20611;-73
2023/01/09 06:01:02;;;;;;;1.00;0.90;;;6.00;99.90;;;;;;5075799;28;20197;-73
2023/01/09 06:03:28;;;;;;;2.70;1.00;;;5.90;99.90;;;;;;5075712;28;20197;-72
2023/01/09 06:05:55;;;;;;;1.90;1.00;;;5.90;99.90;;;;;;5075420;28;20705;-72
2023/01/09 06:08:21;;;;;;;1.07;0.97;;;5.90;99.90;;;;;;5075614;28;20200;-72
2023/01/09 06:10:49;;;;;;;1.13;1.00;;;5.80;99.90;;;;;;5075505;28;20273;-72
2023/01/09 06:13:16;;;;;;;1.10;1.00;;;5.80;99.90;;;;;;5075545;28;20197;-73
2023/01/09 06:15:43;;;;;;;1.40;0.93;;;5.80;99.90;;;;;;5075440;28;20201;-74
2023/01/09 06:18:09;;;;;;;1.63;1.33;;;5.70;99.90;;;;;;5075302;28;20757;-72
2023/01/09 06:20:36;;;;;;;2.33;1.90;;;5.70;99.90;;;;;;5075382;28;20201;-72
2023/01/09 06:23:02;;;;;;;2.90;2.60;;;5.70;99.90;;;;;;5075460;28;20258;-72
2023/01/09 06:25:29;;;;;;;5.90;4.07;;;5.60;99.90;;;;;;5075123;28;20750;-72
2023/01/09 06:27:57;;;;;;;1.70;1.60;;;5.60;99.90;;;;;;5075057;28;20714;-72
2023/01/09 06:30:24;;;;;;;2.20;1.93;;;5.60;99.90;;;;;;5075178;28;20197;-72
2023/01/09 06:32:50;;;;;;;1.97;1.67;;;5.60;99.90;;;;;;5075036;28;20197;-72
2023/01/09 06:35:19;;;;;;;4.90;3.93;;;5.70;99.90;;;;;;5074991;28;20715;-72
2023/01/09 06:37:46;;;;;;;4.00;3.30;;;5.70;99.90;;;;;;5075010;28;20273;-72
2023/01/09 06:40:13;;;;;;;2.10;1.90;;;5.70;99.90;;;;;;5074989;28;20197;-72
2023/01/09 06:42:43;;;;;;;2.57;2.37;;;5.70;99.90;;;;;;5074721;28;20660;-72
2023/01/09 06:45:12;;;;;;;1.63;1.30;;;5.70;99.90;;;;;;5074796;28;20228;-73
2023/01/09 06:47:39;;;;;;;2.20;1.53;;;5.70;99.90;;;;;;5075075;28;20266;-72
2023/01/09 06:50:06;;;;;;;4.83;2.47;;;5.70;99.90;;;;;;5075182;28;20193;-73
2023/01/09 06:52:33;;;;;;;3.40;2.93;;;5.70;99.90;;;;;;5074612;28;20197;-73
2023/01/09 06:54:59;;;;;;;2.93;1.50;;;5.60;99.90;;;;;;5074619;28;20197;-72
2023/01/09 06:57:26;;;;;;;2.07;1.80;;;5.70;99.90;;;;;;5074445;28;20680;-73
2023/01/09 06:59:53;;;;;;;2.03;1.53;;;5.70;99.90;;;;;;5074617;28;20255;-72
2023/01/09 07:02:22;;;;;;;1.50;1.40;;;5.70;99.90;;;;;;5074419;28;20197;-73
2023/01/09 07:04:48;;;;;;;2.57;1.47;;;5.70;99.90;;;;;;5074303;28;20201;-73
2023/01/09 07:07:15;;;;;;;4.10;1.70;;;5.70;99.90;;;;;;5074529;28;20266;-72
2023/01/09 07:09:42;;;;;;;1.77;1.60;;;5.70;99.90;;;;;;5074498;28;20250;-73
2023/01/09 07:12:08;;;;;;;2.27;1.50;;;5.60;99.90;;;;;;5074481;28;20341;-72
2023/01/09 07:14:35;;;;;;;2.30;1.37;;;5.60;99.90;;;;;;5074233;28;20204;-72
2023/01/09 07:17:01;;;;;;;2.43;1.20;;;5.60;99.90;;;;;;5073939;28;20281;-71
2023/01/09 07:19:29;;;;;;;1.93;1.30;;;5.60;99.90;;;;;;5074298;28;20561;-71
2023/01/09 07:21:56;;;;;;;5.63;1.40;;;5.60;99.90;;;;;;5074128;28;20265;-71
2023/01/09 07:24:22;;;;;;;1.90;1.20;;;5.50;99.90;;;;;;5073979;28;20250;-71
2023/01/09 07:26:49;;;;;;;2.20;1.17;;;5.50;99.90;;;;;;5073749;28;20258;-71
2023/01/09 07:29:16;;;;;;;4.27;1.30;;;5.50;99.90;;;;;;5073834;28;20721;-71
2023/01/09 07:31:42;;;;;;;1.43;1.30;;;5.40;99.90;;;;;;5074071;28;20215;-73
2023/01/09 07:34:09;;;;;;;2.80;1.50;;;5.40;99.90;;;;;;5074065;28;20197;-72
2023/01/09 07:36:37;;;;;;;2.63;1.50;;;5.40;99.90;;;;;;5073695;28;20664;-73
2023/01/09 07:39:03;;;;;;;2.80;1.60;;;5.40;99.90;;;;;;5073647;28;20250;-72
2023/01/09 07:41:30;;;;;;;4.30;1.80;;;5.40;99.90;;;;;;5073758;28;20201;-72
2023/01/09 07:43:57;;;;;;;7.07;3.40;;;5.40;99.90;;;;;;5073728;28;20246;-71
2023/01/09 07:46:24;;;;;;;6.83;1.90;;;5.40;99.90;;;;;;5073845;28;20200;-73
2023/01/09 07:48:50;;;;;;;5.30;3.33;;;5.40;99.90;;;;;;5073785;28;20197;-71
2023/01/09 07:51:17;;;;;;;5.27;2.73;;;5.40;99.90;;;;;;5073721;28;20204;-72
2023/01/09 07:53:45;;;;;;;5.13;2.60;;;5.30;99.90;;;;;;5073598;28;20598;-71
2023/01/09 07:56:11;;;;;;;4.93;2.77;;;5.30;99.90;;;;;;5073389;28;20645;-71
2023/01/09 07:58:38;;;;;;;1.77;1.43;;;5.30;99.90;;;;;;5073242;28;20278;-71
2023/01/09 08:01:05;;;;;;;4.77;1.63;;;5.20;99.90;;;;;;5073391;28;20251;-70
2023/01/09 08:03:32;;;;;;;5.77;2.50;;;5.20;99.90;;;;;;5073314;28;20209;-70
2023/01/09 08:05:59;;;;;;;8.80;3.10;;;5.30;99.90;;;;;;5073193;28;20231;-71
2023/01/09 08:08:25;;;;;;;5.27;3.93;;;5.30;99.90;;;;;;5073121;28;20197;-70
2023/01/09 08:10:53;;;;;;;4.17;2.10;;;5.30;99.90;;;;;;5073000;28;20235;-71
2023/01/09 08:13:20;;;;;;;7.77;2.10;;;5.40;99.90;;;;;;5073028;28;20201;-72
2023/01/09 08:15:47;;;;;;;6.97;2.13;;;5.40;99.90;;;;;;5072386;28;20201;-73
2023/01/09 08:18:13;;;;;;;5.33;2.30;;;5.40;99.90;;;;;;5073022;28;20221;-73
2023/01/09 08:20:40;;;;;;;7.43;3.13;;;5.30;99.90;;;;;;5072927;28;20246;-72
2023/01/09 08:23:06;;;;;;;7.90;3.43;;;5.30;99.90;;;;;;5072991;28;20209;-71
2023/01/09 08:25:33;;;;;;;7.80;3.43;;;5.30;99.90;;;;;;5072440;28;20749;-72
2023/01/09 08:28:01;;;;;;;9.90;3.40;;;5.30;99.90;;;;;;5052937;28;20262;-72
2023/01/09 08:30:27;;;;;;;6.97;3.67;;;5.30;99.90;;;;;;5052797;28;20202;-72
2023/01/09 08:32:54;;;;;;;3.23;1.60;;;5.40;99.90;;;;;;5052759;28;20193;-72
2023/01/09 08:35:21;;;;;;;4.07;2.43;;;5.40;99.90;;;;;;5053047;28;20255;-71
2023/01/09 08:37:48;;;;;;;11.13;6.50;;;5.40;99.90;;;;;;5052607;28;20229;-73
2023/01/09 08:40:16;;;;;;;6.13;2.10;;;5.40;99.90;;;;;;5052544;28;20196;-72
2023/01/09 08:48:14;;;;;;;7.77;2.10;;;5.50;99.90;;;;;;5052684;28;20337;-72
2023/01/09 08:50:40;;;;;;;7.67;1.67;;;5.50;99.90;;;;;;5052614;28;20193;-72
2023/01/09 08:53:07;;;;;;;5.37;1.80;;;5.60;99.90;;;;;;5052555;28;20657;-72
2023/01/09 08:55:33;;;;;;;6.53;1.80;;;5.50;99.90;;;;;;5052662;28;20561;-72
2023/01/09 08:58:00;;;;;;;5.73;1.63;;;5.50;99.90;;;;;;5052424;28;20226;-72
2023/01/09 09:00:28;;;;;;;4.40;1.50;;;5.50;99.90;;;;;;5052436;28;20604;-71
2023/01/09 09:02:57;;;;;;;4.43;1.60;;;5.50;99.90;;;;;;5052481;28;20204;-72
2023/01/09 09:05:25;;;;;;;4.27;1.40;;;5.40;99.90;;;;;;5052363;28;20235;-72
2023/01/09 09:07:54;;;;;;;3.13;1.53;;;5.60;99.90;;;;;;5052419;28;20649;-71
2023/01/09 09:10:22;;;;;;;3.80;1.50;;;5.60;99.90;;;;;;5059172;28;20220;-72
2023/01/09 09:12:50;;;;;;;3.83;1.70;;;5.60;99.90;;;;;;5071015;28;20192;-72
2023/01/09 09:15:22;;;;;;;2.27;1.40;;;5.70;99.90;;;;;;5072076;28;20219;-71
2023/01/09 09:17:52;;;;;;;3.70;1.50;;;5.80;99.90;;;;;;5072169;28;20220;-72
2023/01/09 09:20:19;;;;;;;5.77;2.00;;;5.80;99.90;;;;;;5072334;28;20189;-72
2023/01/09 09:22:46;;;;;;;4.20;1.57;;;5.70;99.90;;;;;;5072379;28;20231;-72
2023/01/09 09:25:13;;;;;;;3.27;1.57;;;5.70;99.90;;;;;;5071915;28;20708;-72
2023/01/09 09:27:39;;;;;;;3.33;1.67;;;5.60;99.90;;;;;;5073968;28;20333;-71
2023/01/09 09:30:07;;;;;;;2.80;1.73;;;5.50;99.90;;;;;;5075953;28;20197;-72
2023/01/09 09:32:34;;;;;;;2.13;1.47;;;5.40;99.90;;;;;;5076347;28;20192;-72
2023/01/09 09:35:02;;;;;;;6.23;1.80;;;5.40;99.90;;;;;;5076062;28;20292;-73
2023/01/09 09:37:29;;;;;;;6.57;1.60;;;5.30;99.90;;;;;;5076027;28;20587;-72
2023/01/09 09:39:55;;;;;;;3.47;1.70;;;5.40;99.90;;;;;;5076010;28;20235;-74
2023/01/09 09:45:37;;;;;;;3.77;1.83;;;5.50;99.90;;;;;;5075844;28;20310;-72
2023/01/09 09:48:15;;;;;;;3.47;1.50;;;5.60;99.90;;;;;;5075616;28;20203;-72
2023/01/09 09:51:04;;;;;;;3.70;1.73;;;5.70;99.90;;;;;;5075575;28;20242;-72
2023/01/09 09:53:36;;;;;;;6.73;1.50;;;5.80;99.90;;;;;;5075792;28;20193;-72
2023/01/09 09:56:03;;;;;;;2.97;1.60;;;5.90;99.90;;;;;;5075815;28;20197;-72
2023/01/09 09:58:36;;;;;;;3.20;1.33;;;5.90;99.90;;;;;;5075319;28;20932;-72
2023/01/09 10:01:04;;;;;;;3.40;1.47;;;5.90;99.90;;;;;;5075548;28;20200;-72
2023/01/09 10:03:35;;;;;;;2.77;1.30;;;6.00;99.90;;;;;;5075332;28;20266;-72
2023/01/09 10:06:08;;;;;;;3.20;1.20;;;6.00;99.90;;;;;;5075565;28;20201;-72
2023/01/09 10:08:42;;;;;;;4.50;1.70;;;6.00;99.90;;;;;;5075390;28;20223;-73
2023/01/09 10:11:16;;;;;;;4.17;1.17;;;6.10;99.90;;;;;;5074839;28;20197;-73
2023/01/09 10:16:37;;;;;;;6.97;1.60;;;6.30;99.90;;;;;;5075309;28;20200;-72
2023/01/09 10:19:18;;;;;;;5.37;1.57;;;6.30;99.90;;;;;;5075274;28;20225;-71
2023/01/09 10:21:57;;;;;;;3.03;1.30;;;6.40;99.90;;;;;;5075029;28;20197;-74
2023/01/09 10:24:38;;;;;;;5.20;2.20;;;6.40;99.90;;;;;;5074823;28;20197;-71
2023/01/09 10:27:16;;;;;;;3.87;1.77;;;6.20;99.90;;;;;;5075066;28;20734;-72
2023/01/09 10:30:01;;;;;;;3.10;1.47;;;6.30;99.90;;;;;;5074885;28;20284;-73
2023/01/09 10:32:49;;;;;;;6.20;1.50;;;6.30;99.90;;;;;;5074971;28;20189;-73
2023/01/09 10:35:35;;;;;;;6.13;1.57;;;6.30;99.90;;;;;;5074786;28;20258;-73
2023/01/09 10:38:07;;;;;;;7.80;1.90;;;6.20;99.90;;;;;;5074485;28;20749;-72
2023/01/09 10:40:39;;;;;;;9.00;1.77;;;6.20;99.90;;;;;;5074242;28;20204;-72
2023/01/09 10:43:11;;;;;;;3.57;1.30;;;6.20;99.90;;;;;;5074707;28;20197;-73
2023/01/09 10:45:42;;;;;;;3.43;1.30;;;6.20;99.90;;;;;;5074965;28;20254;-72
2023/01/09 10:48:19;;;;;;;4.63;1.40;;;6.10;99.90;;;;;;5074738;28;20250;-72
2023/01/09 10:50:50;;;;;;;3.93;1.40;;;6.10;99.90;;;;;;5074830;28;20308;-71
2023/01/09 10:53:22;;;;;;;3.40;1.30;;;6.10;99.90;;;;;;5074604;28;20254;-71
2023/01/09 10:55:54;;;;;;;5.07;1.67;;;6.10;99.90;;;;;;5074099;28;20255;-71
2023/01/09 10:58:22;;;;;;;3.87;1.60;;;6.20;99.90;;;;;;5074719;28;20217;-71
2023/01/09 11:00:50;;;;;;;2.47;1.20;;;6.20;99.90;;;;;;5074686;28;20254;-71
2023/01/09 11:03:18;;;;;;;4.87;1.47;;;6.20;99.90;;;;;;5074458;28;20274;-71
2023/01/09 11:05:50;;;;;;;2.63;1.40;;;6.20;99.90;;;;;;5073989;28;20200;-72
2023/01/09 11:08:24;;;;;;;4.03;1.60;;;6.20;99.90;;;;;;5074179;28;20222;-71
2023/01/09 11:10:52;;;;;;;5.83;1.30;;;6.30;99.90;;;;;;5074592;28;20251;-71
2023/01/09 11:13:21;;;;;;;2.97;1.60;;;6.20;99.90;;;;;;5074033;28;20201;-72
2023/01/09 11:16:00;;;;;;;2.90;1.40;;;6.20;99.90;;;;;;5074358;28;20193;-72
2023/01/09 11:18:27;;;;;;;4.90;1.53;;;6.30;99.90;;;;;;5074000;28;20220;-72
2023/01/09 11:20:54;;;;;;;2.00;1.20;;;6.30;99.90;;;;;;5074062;28;20661;-72
2023/01/09 11:23:32;;;;;;;3.30;1.50;;;6.20;99.90;;;;;;5074351;28;20193;-71
2023/01/09 11:26:01;;;;;;;3.93;1.67;;;6.30;99.90;;;;;;5073986;28;20231;-71
2023/01/09 11:28:28;;;;;;;5.40;1.40;;;6.30;99.90;;;;;;5074162;28;20201;-72
2023/01/09 11:30:59;;;;;;;3.10;1.50;;;6.30;99.90;;;;;;5073903;28;20262;-71
2023/01/09 11:33:27;;;;;;;2.90;1.60;;;6.30;99.90;;;;;;5074433;28;20241;-72
2023/01/09 11:36:09;;;;;;;3.03;1.40;;;6.30;99.90;;;;;;5073794;28;20660;-72
2023/01/09 11:38:49;;;;;;;5.90;1.47;;;6.30;99.90;;;;;;5073899;28;20278;-72
2023/01/09 11:41:19;;;;;;;3.10;1.80;;;6.30;99.90;;;;;;5073817;28;20197;-72
2023/01/09 11:43:48;;;;;;;4.67;1.70;;;6.40;99.90;;;;;;5073996;28;20565;-72
2023/01/09 11:46:35;;;;;;;3.53;1.47;;;6.50;99.90;;;;;;5073804;28;20197;-72
2023/01/09 11:49:04;;;;;;;3.77;1.40;;;6.50;99.90;;;;;;5073656;28;20197;-72
2023/01/09 11:51:33;;;;;;;4.70;1.83;;;6.50;99.90;;;;;;5072628;28;20193;-71
2023/01/09 11:54:14;;;;;;;4.93;1.40;;;6.40;99.90;;;;;;5073378;28;20247;-72
2023/01/09 11:56:41;;;;;;;5.30;1.70;;;6.40;99.90;;;;;;5073827;28;20205;-73
2023/01/09 11:59:12;;;;;;;4.23;1.57;;;6.40;99.90;;;;;;5073487;28;20220;-72
2023/01/09 12:02:21;;;;;;;3.90;1.40;;;6.30;99.90;;;;;;5073350;28;20201;-72
2023/01/09 12:04:53;;;;;;;4.50;1.40;;;6.30;99.90;;;;;;5070042;28;20251;-72
2023/01/09 12:07:46;;;;;;;4.87;1.87;;;6.20;99.90;;;;;;5073366;28;20652;-72
2023/01/09 12:10:30;;;;;;;3.87;1.50;;;6.20;99.90;;;;;;5073278;28;20197;-72
2023/01/09 12:13:05;;;;;;;3.60;1.67;;;6.30;99.90;;;;;;5073212;28;20629;-71
2023/01/09 12:15:41;;;;;;;3.70;1.70;;;6.30;99.90;;;;;;5073383;28;20201;-73
2023/01/09 12:18:25;;;;;;;2.87;1.50;;;6.30;99.90;;;;;;5073056;28;20564;-72
2023/01/09 12:21:10;;;;;;;4.20;1.80;;;6.30;99.90;;;;;;5073006;28;20707;-74
2023/01/09 12:23:49;;;;;;;5.53;1.63;;;6.40;99.90;;;;;;5073269;28;20209;-74
2023/01/09 12:26:22;;;;;;;3.23;1.40;;;6.20;99.90;;;;;;5072844;28;20634;-73
2023/01/09 12:29:15;;;;;;;2.47;1.60;;;6.20;99.90;;;;;;5073170;28;20205;-73
2023/01/09 12:31:57;;;;;;;6.13;1.67;;;6.20;99.90;;;;;;5073061;28;20652;-72
2023/01/09 12:34:47;;;;;;;3.97;1.63;;;6.30;99.90;;;;;;5073230;28;20208;-72
2023/01/09 12:37:35;;;;;;;4.37;1.60;;;6.20;99.90;;;;;;5072918;28;20701;-72
2023/01/09 12:40:16;;;;;;;2.73;1.60;;;6.10;99.90;;;;;;5073033;28;20233;-73
2023/01/09 12:42:52;;;;;;;3.63;1.70;;;6.10;99.90;;;;;;5072925;28;20197;-73
2023/01/09 12:45:38;;;;;;;2.83;1.50;;;6.10;99.90;;;;;;5072993;28;20201;-73
2023/01/09 12:48:20;;;;;;;4.17;1.97;;;6.00;99.90;;;;;;5072757;28;20201;-73
2023/01/09 12:51:15;;;;;;;6.70;1.80;;;6.00;99.90;;;;;;5072915;28;20201;-73
2023/01/09 12:53:46;;;;;;;4.33;1.90;;;6.10;99.90;;;;;;5065302;28;20197;-73
2023/01/09 12:56:18;;;;;;;5.77;1.87;;;6.30;99.90;;;;;;5072660;28;20196;-74
2023/01/09 12:58:49;;;;;;;4.13;1.70;;;6.60;99.90;;;;;;5072626;28;20301;-72
2023/01/09 13:01:21;;;;;;;4.00;1.87;;;6.70;99.90;;;;;;5072610;28;20197;-73
2023/01/09 13:03:56;;;;;;;2.60;1.77;;;6.50;99.90;;;;;;5076019;28;20329;-73
2023/01/09 13:06:24;;;;;;;3.20;1.80;;;6.50;99.90;;;;;;5077703;28;20217;-72
2023/01/09 13:08:56;;;;;;;3.37;2.20;;;6.40;99.90;;;;;;5078968;28;20242;-71
2023/01/09 13:11:28;;;;;;;5.03;2.40;;;6.40;99.90;;;;;;5079049;28;20588;-72
2023/01/09 13:14:01;;;;;;;5.60;2.27;;;6.40;99.90;;;;;;5079088;28;20189;-73
2023/01/09 13:16:31;;;;;;;3.97;2.30;;;6.40;99.90;;;;;;5079220;28;20197;-72
2023/01/09 13:19:05;;;;;;;7.40;2.80;;;6.30;99.90;;;;;;5078777;28;20266;-72
2023/01/09 13:21:32;;;;;;;5.20;2.10;;;6.20;99.90;;;;;;5078873;28;20197;-72
2023/01/09 13:24:06;;;;;;;4.70;2.30;;;6.10;99.90;;;;;;5079106;28;20193;-73
2023/01/09 13:26:37;;;;;;;5.13;2.67;;;6.10;99.90;;;;;;5078920;28;20201;-74